Aviation Digital Data Service (ADDS)

Output produced by METARs form (2031 UTC 20 August 2019)
found at http://www.aviationweather.gov/metar/data/
 
METAR text: UKKK 202000Z 09002MPS CAVOK 21/14 Q1023 R08/70D NOSIG
Conditions at: UKKK (KIEV/ZHYLIANY , UA) observed 2000 UTC 20 August 2019
Temperature: 21.0°C (70°F)
Dewpoint: 14.0°C (57°F) [RH = 64%]
Pressure (altimeter): 30.21 inches Hg (1023.0 mb)
Winds: from the E (90 degrees) at 5 MPH (4 knots; 2.1 m/s)
Visibility: 6 or more miles (10+ km)
Ceiling: ceiling and visibility are OK
Clouds: unknown
Weather: no significant weather observed at this time

METAR text: UKKK 201930Z 08002MPS CAVOK 21/14 Q1023 R08/CLRD70 NOSIG
Conditions at: UKKK (KIEV/ZHYLIANY , UA) observed 1930 UTC 20 August 2019
Temperature: 21.0°C (70°F)
Dewpoint: 14.0°C (57°F) [RH = 64%]
Pressure (altimeter): 30.21 inches Hg (1023.0 mb)
Winds: from the E (80 degrees) at 5 MPH (4 knots; 2.1 m/s)
Visibility: 6 or more miles (10+ km)
Ceiling: ceiling and visibility are OK
Clouds: unknown
Weather: no significant weather observed at this time

METAR text: UKKK 201900Z 05001MPS CAVOK 21/14 Q1023 R08/70D NOSIG
Conditions at: UKKK (KIEV/ZHYLIANY , UA) observed 1900 UTC 20 August 2019
Temperature: 21.0°C (70°F)
Dewpoint: 14.0°C (57°F) [RH = 64%]
Pressure (altimeter): 30.21 inches Hg (1023.0 mb)
Winds: from the NE (50 degrees) at 2 MPH (2 knots; 1.0 m/s)
Visibility: 6 or more miles (10+ km)
Ceiling: ceiling and visibility are OK
Clouds: unknown
Weather: no significant weather observed at this time

METAR text: UKKK 201830Z 00000MPS CAVOK 21/14 Q1023 R08/70D NOSIG
Conditions at: UKKK (KIEV/ZHYLIANY , UA) observed 1830 UTC 20 August 2019
Temperature: 21.0°C (70°F)
Dewpoint: 14.0°C (57°F) [RH = 64%]
Pressure (altimeter): 30.21 inches Hg (1023.0 mb)
Winds: calm
Visibility: 6 or more miles (10+ km)
Ceiling: ceiling and visibility are OK
Clouds: unknown
Weather: no significant weather observed at this time

METAR text: UKKK 201800Z 11001MPS CAVOK 22/14 Q1022 R08/70D NOSIG
Conditions at: UKKK (KIEV/ZHYLIANY , UA) observed 1800 UTC 20 August 2019
Temperature: 22.0°C (72°F)
Dewpoint: 14.0°C (57°F) [RH = 60%]
Pressure (altimeter): 30.18 inches Hg (1022.0 mb)
Winds: from the ESE (110 degrees) at 2 MPH (2 knots; 1.0 m/s)
Visibility: 6 or more miles (10+ km)
Ceiling: ceiling and visibility are OK
Clouds: unknown
Weather: no significant weather observed at this time

METAR text: UKKK 201730Z 12002MPS CAVOK 25/13 Q1022 R08/70D NOSIG
Conditions at: UKKK (KIEV/ZHYLIANY , UA) observed 1730 UTC 20 August 2019
Temperature: 25.0°C (77°F)
Dewpoint: 13.0°C (55°F) [RH = 47%]
Pressure (altimeter): 30.18 inches Hg (1022.0 mb)
Winds: from the ESE (120 degrees) at 5 MPH (4 knots; 2.1 m/s)
Visibility: 6 or more miles (10+ km)
Ceiling: ceiling and visibility are OK
Clouds: unknown
Weather: no significant weather observed at this time

METAR text: UKKK 201700Z 13001MPS 9999 NSC 26/13 Q1022 R08/70D NOSIG
Conditions at: UKKK (KIEV/ZHYLIANY , UA) observed 1700 UTC 20 August 2019
Temperature: 26.0°C (79°F)
Dewpoint: 13.0°C (55°F) [RH = 45%]
Pressure (altimeter): 30.18 inches Hg (1022.0 mb)
Winds: from the SE (130 degrees) at 2 MPH (2 knots; 1.0 m/s)
Visibility: 6 or more miles (10+ km)
Ceiling: at least 12,000 feet AGL
Clouds: sky clear below 12,000 feet AGL
Weather: no significant weather observed at this time

METAR text: UKKK 201630Z 14002MPS CAVOK 28/13 Q1022 R08/70D NOSIG
Conditions at: UKKK (KIEV/ZHYLIANY , UA) observed 1630 UTC 20 August 2019
Temperature: 28.0°C (82°F)
Dewpoint: 13.0°C (55°F) [RH = 40%]
Pressure (altimeter): 30.18 inches Hg (1022.0 mb)
Winds: from the SE (140 degrees) at 5 MPH (4 knots; 2.1 m/s)
Visibility: 6 or more miles (10+ km)
Ceiling: ceiling and visibility are OK
Clouds: unknown
Weather: no significant weather observed at this time

METAR text: UKKK 201600Z 12001MPS CAVOK 29/14 Q1022 R08/70D NOSIG
Conditions at: UKKK (KIEV/ZHYLIANY , UA) observed 1600 UTC 20 August 2019
Temperature: 29.0°C (84°F)
Dewpoint: 14.0°C (57°F) [RH = 40%]
Pressure (altimeter): 30.18 inches Hg (1022.0 mb)
Winds: from the ESE (120 degrees) at 2 MPH (2 knots; 1.0 m/s)
Visibility: 6 or more miles (10+ km)
Ceiling: ceiling and visibility are OK
Clouds: unknown
Weather: no significant weather observed at this time

METAR text: UKKK 201530Z VRB01MPS CAVOK 30/14 Q1022 R08/70D NOSIG
Conditions at: UKKK (KIEV/ZHYLIANY , UA) observed 1530 UTC 20 August 2019
Temperature: 30.0°C (86°F)
Dewpoint: 14.0°C (57°F) [RH = 38%]
Pressure (altimeter): 30.18 inches Hg (1022.0 mb)
Winds: variable direction winds at 2 MPH (2 knots; 1.0 m/s)
Visibility: 6 or more miles (10+ km)
Ceiling: ceiling and visibility are OK
Clouds: unknown
Weather: no significant weather observed at this time

METAR text: UKKK 201500Z VRB01MPS CAVOK 30/12 Q1022 R08/150060 NOSIG
Conditions at: UKKK (KIEV/ZHYLIANY , UA) observed 1500 UTC 20 August 2019
Temperature: 30.0°C (86°F)
Dewpoint: 12.0°C (54°F) [RH = 33%]
Pressure (altimeter): 30.18 inches Hg (1022.0 mb)
Winds: variable direction winds at 2 MPH (2 knots; 1.0 m/s)
Visibility: 6 or more miles (10+ km)
Ceiling: ceiling and visibility are OK
Clouds: unknown
Weather: no significant weather observed at this time

METAR text: UKKK 201430Z 16002MPS 100V190 CAVOK 30/13 Q1022 R26/150060 NOSIG
Conditions at: UKKK (KIEV/ZHYLIANY , UA) observed 1430 UTC 20 August 2019
Temperature: 30.0°C (86°F)
Dewpoint: 13.0°C (55°F) [RH = 35%]
Pressure (altimeter): 30.18 inches Hg (1022.0 mb)
Winds: from the SSE (160 degrees) at 5 MPH (4 knots; 2.1 m/s)
Visibility: 6 or more miles (10+ km)
Ceiling: ceiling and visibility are OK
Clouds: unknown
Weather: no significant weather observed at this time

METAR text: UKKK 201400Z VRB01MPS CAVOK 30/12 Q1022 R26/150060 NOSIG
Conditions at: UKKK (KIEV/ZHYLIANY , UA) observed 1400 UTC 20 August 2019
Temperature: 30.0°C (86°F)
Dewpoint: 12.0°C (54°F) [RH = 33%]
Pressure (altimeter): 30.18 inches Hg (1022.0 mb)
Winds: variable direction winds at 2 MPH (2 knots; 1.0 m/s)
Visibility: 6 or more miles (10+ km)
Ceiling: ceiling and visibility are OK
Clouds: unknown
Weather: no significant weather observed at this time

METAR text: UKKK 201330Z 17003MPS 130V220 CAVOK 31/12 Q1022 R26/150060 NOSIG
Conditions at: UKKK (KIEV/ZHYLIANY , UA) observed 1330 UTC 20 August 2019
Temperature: 31.0°C (88°F)
Dewpoint: 12.0°C (54°F) [RH = 31%]
Pressure (altimeter): 30.18 inches Hg (1022.0 mb)
Winds: from the S (170 degrees) at 7 MPH (6 knots; 3.1 m/s)
Visibility: 6 or more miles (10+ km)
Ceiling: ceiling and visibility are OK
Clouds: unknown
Weather: no significant weather observed at this time

METAR text: UKKK 201300Z 13002MPS CAVOK 30/13 Q1022 R26/150060 NOSIG
Conditions at: UKKK (KIEV/ZHYLIANY , UA) observed 1300 UTC 20 August 2019
Temperature: 30.0°C (86°F)
Dewpoint: 13.0°C (55°F) [RH = 35%]
Pressure (altimeter): 30.18 inches Hg (1022.0 mb)
Winds: from the SE (130 degrees) at 5 MPH (4 knots; 2.1 m/s)
Visibility: 6 or more miles (10+ km)
Ceiling: ceiling and visibility are OK
Clouds: unknown
Weather: no significant weather observed at this time

METAR text: UKKK 201230Z 12003MPS 080V170 CAVOK 30/12 Q1022 R26/150060 NOSIG
Conditions at: UKKK (KIEV/ZHYLIANY , UA) observed 1230 UTC 20 August 2019
Temperature: 30.0°C (86°F)
Dewpoint: 12.0°C (54°F) [RH = 33%]
Pressure (altimeter): 30.18 inches Hg (1022.0 mb)
Winds: from the ESE (120 degrees) at 7 MPH (6 knots; 3.1 m/s)
Visibility: 6 or more miles (10+ km)
Ceiling: ceiling and visibility are OK
Clouds: unknown
Weather: no significant weather observed at this time

METAR text: UKKK 201200Z 11002MPS CAVOK 30/12 Q1022 R26/150060 NOSIG
Conditions at: UKKK (KIEV/ZHYLIANY , UA) observed 1200 UTC 20 August 2019
Temperature: 30.0°C (86°F)
Dewpoint: 12.0°C (54°F) [RH = 33%]
Pressure (altimeter): 30.18 inches Hg (1022.0 mb)
Winds: from the ESE (110 degrees) at 5 MPH (4 knots; 2.1 m/s)
Visibility: 6 or more miles (10+ km)
Ceiling: ceiling and visibility are OK
Clouds: unknown
Weather: no significant weather observed at this time

METAR text: UKKK 201130Z 22002MPS CAVOK 30/13 Q1022 R26/150060 NOSIG
Conditions at: UKKK (KIEV/ZHYLIANY , UA) observed 1130 UTC 20 August 2019
Temperature: 30.0°C (86°F)
Dewpoint: 13.0°C (55°F) [RH = 35%]
Pressure (altimeter): 30.18 inches Hg (1022.0 mb)
Winds: from the SW (220 degrees) at 5 MPH (4 knots; 2.1 m/s)
Visibility: 6 or more miles (10+ km)
Ceiling: ceiling and visibility are OK
Clouds: unknown
Weather: no significant weather observed at this time

METAR text: UKKK 201100Z 03002MPS 310V090 CAVOK 30/13 Q1022 R26/150060 NOSIG
Conditions at: UKKK (KIEV/ZHYLIANY , UA) observed 1100 UTC 20 August 2019
Temperature: 30.0°C (86°F)
Dewpoint: 13.0°C (55°F) [RH = 35%]
Pressure (altimeter): 30.18 inches Hg (1022.0 mb)
Winds: from the NNE (30 degrees) at 5 MPH (4 knots; 2.1 m/s)
Visibility: 6 or more miles (10+ km)
Ceiling: ceiling and visibility are OK
Clouds: unknown
Weather: no significant weather observed at this time

METAR text: UKKK 201030Z 20002MPS 150V310 CAVOK 30/12 Q1022 R26/150060 NOSIG
Conditions at: UKKK (KIEV/ZHYLIANY , UA) observed 1030 UTC 20 August 2019
Temperature: 30.0°C (86°F)
Dewpoint: 12.0°C (54°F) [RH = 33%]
Pressure (altimeter): 30.18 inches Hg (1022.0 mb)
Winds: from the SSW (200 degrees) at 5 MPH (4 knots; 2.1 m/s)
Visibility: 6 or more miles (10+ km)
Ceiling: ceiling and visibility are OK
Clouds: unknown
Weather: no significant weather observed at this time

METAR text: UKKK 201000Z 13002MPS CAVOK 29/14 Q1022 R26/150060 NOSIG
Conditions at: UKKK (KIEV/ZHYLIANY , UA) observed 1000 UTC 20 August 2019
Temperature: 29.0°C (84°F)
Dewpoint: 14.0°C (57°F) [RH = 40%]
Pressure (altimeter): 30.18 inches Hg (1022.0 mb)
Winds: from the SE (130 degrees) at 5 MPH (4 knots; 2.1 m/s)
Visibility: 6 or more miles (10+ km)
Ceiling: ceiling and visibility are OK
Clouds: unknown
Weather: no significant weather observed at this time

METAR text: UKKK 200930Z 18002MPS 100V240 CAVOK 30/14 Q1022 R26/150060 NOSIG
Conditions at: UKKK (KIEV/ZHYLIANY , UA) observed 0930 UTC 20 August 2019
Temperature: 30.0°C (86°F)
Dewpoint: 14.0°C (57°F) [RH = 38%]
Pressure (altimeter): 30.18 inches Hg (1022.0 mb)
Winds: from the S (180 degrees) at 5 MPH (4 knots; 2.1 m/s)
Visibility: 6 or more miles (10+ km)
Ceiling: ceiling and visibility are OK
Clouds: unknown
Weather: no significant weather observed at this time

METAR text: UKKK 200900Z VRB01MPS CAVOK 29/12 Q1022 R26/150060 NOSIG
Conditions at: UKKK (KIEV/ZHYLIANY , UA) observed 0900 UTC 20 August 2019
Temperature: 29.0°C (84°F)
Dewpoint: 12.0°C (54°F) [RH = 35%]
Pressure (altimeter): 30.18 inches Hg (1022.0 mb)
Winds: variable direction winds at 2 MPH (2 knots; 1.0 m/s)
Visibility: 6 or more miles (10+ km)
Ceiling: ceiling and visibility are OK
Clouds: unknown
Weather: no significant weather observed at this time

METAR text: UKKK 200830Z VRB01MPS CAVOK 28/13 Q1022 R26/70D NOSIG
Conditions at: UKKK (KIEV/ZHYLIANY , UA) observed 0830 UTC 20 August 2019
Temperature: 28.0°C (82°F)
Dewpoint: 13.0°C (55°F) [RH = 40%]
Pressure (altimeter): 30.18 inches Hg (1022.0 mb)
Winds: variable direction winds at 2 MPH (2 knots; 1.0 m/s)
Visibility: 6 or more miles (10+ km)
Ceiling: ceiling and visibility are OK
Clouds: unknown
Weather: no significant weather observed at this time

METAR text: UKKK 200800Z VRB01MPS CAVOK 28/13 Q1022 R26/70D NOSIG
Conditions at: UKKK (KIEV/ZHYLIANY , UA) observed 0800 UTC 20 August 2019
Temperature: 28.0°C (82°F)
Dewpoint: 13.0°C (55°F) [RH = 40%]
Pressure (altimeter): 30.18 inches Hg (1022.0 mb)
Winds: variable direction winds at 2 MPH (2 knots; 1.0 m/s)
Visibility: 6 or more miles (10+ km)
Ceiling: ceiling and visibility are OK
Clouds: unknown
Weather: no significant weather observed at this time

METAR text: UKKK 200730Z 26002MPS 170V320 CAVOK 27/13 Q1022 R26/70D NOSIG
Conditions at: UKKK (KIEV/ZHYLIANY , UA) observed 0730 UTC 20 August 2019
Temperature: 27.0°C (81°F)
Dewpoint: 13.0°C (55°F) [RH = 42%]
Pressure (altimeter): 30.18 inches Hg (1022.0 mb)
Winds: from the W (260 degrees) at 5 MPH (4 knots; 2.1 m/s)
Visibility: 6 or more miles (10+ km)
Ceiling: ceiling and visibility are OK
Clouds: unknown
Weather: no significant weather observed at this time

METAR text: UKKK 200700Z 27002MPS 230V300 CAVOK 26/14 Q1022 R26/CLRD70 NOSIG
Conditions at: UKKK (KIEV/ZHYLIANY , UA) observed 0700 UTC 20 August 2019
Temperature: 26.0°C (79°F)
Dewpoint: 14.0°C (57°F) [RH = 48%]
Pressure (altimeter): 30.18 inches Hg (1022.0 mb)
Winds: from the W (270 degrees) at 5 MPH (4 knots; 2.1 m/s)
Visibility: 6 or more miles (10+ km)
Ceiling: ceiling and visibility are OK
Clouds: unknown
Weather: no significant weather observed at this time

METAR text: UKKK 200630Z 27002MPS 220V290 CAVOK 24/13 Q1022 R26/70D NOSIG
Conditions at: UKKK (KIEV/ZHYLIANY , UA) observed 0630 UTC 20 August 2019
Temperature: 24.0°C (75°F)
Dewpoint: 13.0°C (55°F) [RH = 50%]
Pressure (altimeter): 30.18 inches Hg (1022.0 mb)
Winds: from the W (270 degrees) at 5 MPH (4 knots; 2.1 m/s)
Visibility: 6 or more miles (10+ km)
Ceiling: ceiling and visibility are OK
Clouds: unknown
Weather: no significant weather observed at this time

METAR text: UKKK 200600Z 23002MPS 210V280 CAVOK 23/13 Q1022 R26/70D NOSIG
Conditions at: UKKK (KIEV/ZHYLIANY , UA) observed 0600 UTC 20 August 2019
Temperature: 23.0°C (73°F)
Dewpoint: 13.0°C (55°F) [RH = 53%]
Pressure (altimeter): 30.18 inches Hg (1022.0 mb)
Winds: from the SW (230 degrees) at 5 MPH (4 knots; 2.1 m/s)
Visibility: 6 or more miles (10+ km)
Ceiling: ceiling and visibility are OK
Clouds: unknown
Weather: no significant weather observed at this time

METAR text: UKKK 200530Z 23002MPS CAVOK 22/13 Q1022 R26/70D NOSIG
Conditions at: UKKK (KIEV/ZHYLIANY , UA) observed 0530 UTC 20 August 2019
Temperature: 22.0°C (72°F)
Dewpoint: 13.0°C (55°F) [RH = 57%]
Pressure (altimeter): 30.18 inches Hg (1022.0 mb)
Winds: from the SW (230 degrees) at 5 MPH (4 knots; 2.1 m/s)
Visibility: 6 or more miles (10+ km)
Ceiling: ceiling and visibility are OK
Clouds: unknown
Weather: no significant weather observed at this time

METAR text: UKKK 200500Z VRB01MPS CAVOK 21/13 Q1022 R26/70D NOSIG
Conditions at: UKKK (KIEV/ZHYLIANY , UA) observed 0500 UTC 20 August 2019
Temperature: 21.0°C (70°F)
Dewpoint: 13.0°C (55°F) [RH = 60%]
Pressure (altimeter): 30.18 inches Hg (1022.0 mb)
Winds: variable direction winds at 2 MPH (2 knots; 1.0 m/s)
Visibility: 6 or more miles (10+ km)
Ceiling: ceiling and visibility are OK
Clouds: unknown
Weather: no significant weather observed at this time

METAR text: UKKK 200430Z 26002MPS CAVOK 19/15 Q1022 R26/70D NOSIG
Conditions at: UKKK (KIEV/ZHYLIANY , UA) observed 0430 UTC 20 August 2019
Temperature: 19.0°C (66°F)
Dewpoint: 15.0°C (59°F) [RH = 78%]
Pressure (altimeter): 30.18 inches Hg (1022.0 mb)
Winds: from the W (260 degrees) at 5 MPH (4 knots; 2.1 m/s)
Visibility: 6 or more miles (10+ km)
Ceiling: ceiling and visibility are OK
Clouds: unknown
Weather: no significant weather observed at this time

METAR text: UKKK 200400Z 25002MPS 220V280 CAVOK 16/14 Q1022 R26/70D NOSIG
Conditions at: UKKK (KIEV/ZHYLIANY , UA) observed 0400 UTC 20 August 2019
Temperature: 16.0°C (61°F)
Dewpoint: 14.0°C (57°F) [RH = 88%]
Pressure (altimeter): 30.18 inches Hg (1022.0 mb)
Winds: from the WSW (250 degrees) at 5 MPH (4 knots; 2.1 m/s)
Visibility: 6 or more miles (10+ km)
Ceiling: ceiling and visibility are OK
Clouds: unknown
Weather: no significant weather observed at this time

METAR text: UKKK 200330Z VRB01MPS CAVOK 15/11 Q1021 R26/70D NOSIG
Conditions at: UKKK (KIEV/ZHYLIANY , UA) observed 0330 UTC 20 August 2019
Temperature: 15.0°C (59°F)
Dewpoint: 11.0°C (52°F) [RH = 77%]
Pressure (altimeter): 30.15 inches Hg (1021.0 mb)
Winds: variable direction winds at 2 MPH (2 knots; 1.0 m/s)
Visibility: 6 or more miles (10+ km)
Ceiling: ceiling and visibility are OK
Clouds: unknown
Weather: no significant weather observed at this time

METAR text: UKKK 200300Z VRB01MPS CAVOK 14/11 Q1021 R26/70D NOSIG
Conditions at: UKKK (KIEV/ZHYLIANY , UA) observed 0300 UTC 20 August 2019
Temperature: 14.0°C (57°F)
Dewpoint: 11.0°C (52°F) [RH = 82%]
Pressure (altimeter): 30.15 inches Hg (1021.0 mb)
Winds: variable direction winds at 2 MPH (2 knots; 1.0 m/s)
Visibility: 6 or more miles (10+ km)
Ceiling: ceiling and visibility are OK
Clouds: unknown
Weather: no significant weather observed at this time

METAR text: UKKK 200230Z 22002MPS 190V260 CAVOK 14/11 Q1021 R26/70D NOSIG
Conditions at: UKKK (KIEV/ZHYLIANY , UA) observed 0230 UTC 20 August 2019
Temperature: 14.0°C (57°F)
Dewpoint: 11.0°C (52°F) [RH = 82%]
Pressure (altimeter): 30.15 inches Hg (1021.0 mb)
Winds: from the SW (220 degrees) at 5 MPH (4 knots; 2.1 m/s)
Visibility: 6 or more miles (10+ km)
Ceiling: ceiling and visibility are OK
Clouds: unknown
Weather: no significant weather observed at this time

METAR text: UKKK 200200Z 23002MPS CAVOK 15/11 Q1021 R26/70D NOSIG
Conditions at: UKKK (KIEV/ZHYLIANY , UA) observed 0200 UTC 20 August 2019
Temperature: 15.0°C (59°F)
Dewpoint: 11.0°C (52°F) [RH = 77%]
Pressure (altimeter): 30.15 inches Hg (1021.0 mb)
Winds: from the SW (230 degrees) at 5 MPH (4 knots; 2.1 m/s)
Visibility: 6 or more miles (10+ km)
Ceiling: ceiling and visibility are OK
Clouds: unknown
Weather: no significant weather observed at this time

METAR text: UKKK 200130Z 25002MPS CAVOK 15/11 Q1021 R26/70D NOSIG
Conditions at: UKKK (KIEV/ZHYLIANY , UA) observed 0130 UTC 20 August 2019
Temperature: 15.0°C (59°F)
Dewpoint: 11.0°C (52°F) [RH = 77%]
Pressure (altimeter): 30.15 inches Hg (1021.0 mb)
Winds: from the WSW (250 degrees) at 5 MPH (4 knots; 2.1 m/s)
Visibility: 6 or more miles (10+ km)
Ceiling: ceiling and visibility are OK
Clouds: unknown
Weather: no significant weather observed at this time

METAR text: UKKK 200100Z 24002MPS 210V270 CAVOK 16/11 Q1021 R26/70D NOSIG
Conditions at: UKKK (KIEV/ZHYLIANY , UA) observed 0100 UTC 20 August 2019
Temperature: 16.0°C (61°F)
Dewpoint: 11.0°C (52°F) [RH = 72%]
Pressure (altimeter): 30.15 inches Hg (1021.0 mb)
Winds: from the WSW (240 degrees) at 5 MPH (4 knots; 2.1 m/s)
Visibility: 6 or more miles (10+ km)
Ceiling: ceiling and visibility are OK
Clouds: unknown
Weather: no significant weather observed at this time

METAR text: UKKK 200030Z 21003MPS 180V240 CAVOK 18/10 Q1020 R26/70D NOSIG
Conditions at: UKKK (KIEV/ZHYLIANY , UA) observed 0030 UTC 20 August 2019
Temperature: 18.0°C (64°F)
Dewpoint: 10.0°C (50°F) [RH = 59%]
Pressure (altimeter): 30.12 inches Hg (1020.0 mb)
Winds: from the SSW (210 degrees) at 7 MPH (6 knots; 3.1 m/s)
Visibility: 6 or more miles (10+ km)
Ceiling: ceiling and visibility are OK
Clouds: unknown
Weather: no significant weather observed at this time

METAR text: UKKK 200000Z VRB01MPS CAVOK 16/11 Q1020 R08/CLRD70 NOSIG
Conditions at: UKKK (KIEV/ZHYLIANY , UA) observed 0000 UTC 20 August 2019
Temperature: 16.0°C (61°F)
Dewpoint: 11.0°C (52°F) [RH = 72%]
Pressure (altimeter): 30.12 inches Hg (1020.0 mb)
Winds: variable direction winds at 2 MPH (2 knots; 1.0 m/s)
Visibility: 6 or more miles (10+ km)
Ceiling: ceiling and visibility are OK
Clouds: unknown
Weather: no significant weather observed at this time

METAR text: UKKK 192330Z 00000MPS CAVOK 16/11 Q1020 R08/70D NOSIG
Conditions at: UKKK (KIEV/ZHYLIANY , UA) observed 2330 UTC 19 August 2019
Temperature: 16.0°C (61°F)
Dewpoint: 11.0°C (52°F) [RH = 72%]
Pressure (altimeter): 30.12 inches Hg (1020.0 mb)
Winds: calm
Visibility: 6 or more miles (10+ km)
Ceiling: ceiling and visibility are OK
Clouds: unknown
Weather: no significant weather observed at this time

METAR text: UKKK 192300Z 00000MPS CAVOK 16/12 Q1020 R08/70D NOSIG
Conditions at: UKKK (KIEV/ZHYLIANY , UA) observed 2300 UTC 19 August 2019
Temperature: 16.0°C (61°F)
Dewpoint: 12.0°C (54°F) [RH = 77%]
Pressure (altimeter): 30.12 inches Hg (1020.0 mb)
Winds: calm
Visibility: 6 or more miles (10+ km)
Ceiling: ceiling and visibility are OK
Clouds: unknown
Weather: no significant weather observed at this time

METAR text: UKKK 192230Z 00000MPS CAVOK 16/12 Q1020 R08/CLRD70 NOSIG
Conditions at: UKKK (KIEV/ZHYLIANY , UA) observed 2230 UTC 19 August 2019
Temperature: 16.0°C (61°F)
Dewpoint: 12.0°C (54°F) [RH = 77%]
Pressure (altimeter): 30.12 inches Hg (1020.0 mb)
Winds: calm
Visibility: 6 or more miles (10+ km)
Ceiling: ceiling and visibility are OK
Clouds: unknown
Weather: no significant weather observed at this time

METAR text: UKKK 192200Z 00000MPS CAVOK 16/12 Q1020 R08/70D NOSIG
Conditions at: UKKK (KIEV/ZHYLIANY , UA) observed 2200 UTC 19 August 2019
Temperature: 16.0°C (61°F)
Dewpoint: 12.0°C (54°F) [RH = 77%]
Pressure (altimeter): 30.12 inches Hg (1020.0 mb)
Winds: calm
Visibility: 6 or more miles (10+ km)
Ceiling: ceiling and visibility are OK
Clouds: unknown
Weather: no significant weather observed at this time

METAR text: UKKK 192130Z 00000MPS CAVOK 16/12 Q1020 R08/CLRD70 NOSIG
Conditions at: UKKK (KIEV/ZHYLIANY , UA) observed 2130 UTC 19 August 2019
Temperature: 16.0°C (61°F)
Dewpoint: 12.0°C (54°F) [RH = 77%]
Pressure (altimeter): 30.12 inches Hg (1020.0 mb)
Winds: calm
Visibility: 6 or more miles (10+ km)
Ceiling: ceiling and visibility are OK
Clouds: unknown
Weather: no significant weather observed at this time

METAR text: UKKK 192100Z 00000MPS CAVOK 16/13 Q1020 R08/CLRD70 NOSIG
Conditions at: UKKK (KIEV/ZHYLIANY , UA) observed 2100 UTC 19 August 2019
Temperature: 16.0°C (61°F)
Dewpoint: 13.0°C (55°F) [RH = 82%]
Pressure (altimeter): 30.12 inches Hg (1020.0 mb)
Winds: calm
Visibility: 6 or more miles (10+ km)
Ceiling: ceiling and visibility are OK
Clouds: unknown
Weather: no significant weather observed at this time

METAR text: UKKK 192030Z 07001MPS CAVOK 19/12 Q1020 R08/70D NOSIG
Conditions at: UKKK (KIEV/ZHYLIANY , UA) observed 2030 UTC 19 August 2019
Temperature: 19.0°C (66°F)
Dewpoint: 12.0°C (54°F) [RH = 64%]
Pressure (altimeter): 30.12 inches Hg (1020.0 mb)
Winds: from the ENE (70 degrees) at 2 MPH (2 knots; 1.0 m/s)
Visibility: 6 or more miles (10+ km)
Ceiling: ceiling and visibility are OK
Clouds: unknown
Weather: no significant weather observed at this time

METAR text: UKKK 192000Z 06002MPS CAVOK 19/12 Q1020 R08/70D NOSIG
Conditions at: UKKK (KIEV/ZHYLIANY , UA) observed 2000 UTC 19 August 2019
Temperature: 19.0°C (66°F)
Dewpoint: 12.0°C (54°F) [RH = 64%]
Pressure (altimeter): 30.12 inches Hg (1020.0 mb)
Winds: from the ENE (60 degrees) at 5 MPH (4 knots; 2.1 m/s)
Visibility: 6 or more miles (10+ km)
Ceiling: ceiling and visibility are OK
Clouds: unknown
Weather: no significant weather observed at this time

METAR text: UKKK 191930Z VRB01MPS CAVOK 19/12 Q1020 R08/70D NOSIG
Conditions at: UKKK (KIEV/ZHYLIANY , UA) observed 1930 UTC 19 August 2019
Temperature: 19.0°C (66°F)
Dewpoint: 12.0°C (54°F) [RH = 64%]
Pressure (altimeter): 30.12 inches Hg (1020.0 mb)
Winds: variable direction winds at 2 MPH (2 knots; 1.0 m/s)
Visibility: 6 or more miles (10+ km)
Ceiling: ceiling and visibility are OK
Clouds: unknown
Weather: no significant weather observed at this time

METAR text: UKKK 191900Z 12002MPS 9999 NSC 21/12 Q1020 R08/70D NOSIG
Conditions at: UKKK (KIEV/ZHYLIANY , UA) observed 1900 UTC 19 August 2019
Temperature: 21.0°C (70°F)
Dewpoint: 12.0°C (54°F) [RH = 56%]
Pressure (altimeter): 30.12 inches Hg (1020.0 mb)
Winds: from the ESE (120 degrees) at 5 MPH (4 knots; 2.1 m/s)
Visibility: 6 or more miles (10+ km)
Ceiling: at least 12,000 feet AGL
Clouds: sky clear below 12,000 feet AGL
Weather: no significant weather observed at this time

METAR text: UKKK 191830Z 00000MPS CAVOK 19/13 Q1020 R08/70D NOSIG
Conditions at: UKKK (KIEV/ZHYLIANY , UA) observed 1830 UTC 19 August 2019
Temperature: 19.0°C (66°F)
Dewpoint: 13.0°C (55°F) [RH = 68%]
Pressure (altimeter): 30.12 inches Hg (1020.0 mb)
Winds: calm
Visibility: 6 or more miles (10+ km)
Ceiling: ceiling and visibility are OK
Clouds: unknown
Weather: no significant weather observed at this time

METAR text: UKKK 191800Z 14001MPS CAVOK 21/12 Q1020 R08/70D NOSIG
Conditions at: UKKK (KIEV/ZHYLIANY , UA) observed 1800 UTC 19 August 2019
Temperature: 21.0°C (70°F)
Dewpoint: 12.0°C (54°F) [RH = 56%]
Pressure (altimeter): 30.12 inches Hg (1020.0 mb)
Winds: from the SE (140 degrees) at 2 MPH (2 knots; 1.0 m/s)
Visibility: 6 or more miles (10+ km)
Ceiling: ceiling and visibility are OK
Clouds: unknown
Weather: no significant weather observed at this time

METAR text: UKKK 191730Z 14001MPS CAVOK 22/12 Q1019 R08/CLRD70 NOSIG
Conditions at: UKKK (KIEV/ZHYLIANY , UA) observed 1730 UTC 19 August 2019
Temperature: 22.0°C (72°F)
Dewpoint: 12.0°C (54°F) [RH = 53%]
Pressure (altimeter): 30.09 inches Hg (1019.0 mb)
Winds: from the SE (140 degrees) at 2 MPH (2 knots; 1.0 m/s)
Visibility: 6 or more miles (10+ km)
Ceiling: ceiling and visibility are OK
Clouds: unknown
Weather: no significant weather observed at this time

METAR text: UKKK 191700Z 13002MPS CAVOK 24/12 Q1019 R08/70D NOSIG
Conditions at: UKKK (KIEV/ZHYLIANY , UA) observed 1700 UTC 19 August 2019
Temperature: 24.0°C (75°F)
Dewpoint: 12.0°C (54°F) [RH = 47%]
Pressure (altimeter): 30.09 inches Hg (1019.0 mb)
Winds: from the SE (130 degrees) at 5 MPH (4 knots; 2.1 m/s)
Visibility: 6 or more miles (10+ km)
Ceiling: ceiling and visibility are OK
Clouds: unknown
Weather: no significant weather observed at this time

METAR text: UKKK 191630Z 13002MPS CAVOK 26/12 Q1019 R08/70D NOSIG
Conditions at: UKKK (KIEV/ZHYLIANY , UA) observed 1630 UTC 19 August 2019
Temperature: 26.0°C (79°F)
Dewpoint: 12.0°C (54°F) [RH = 42%]
Pressure (altimeter): 30.09 inches Hg (1019.0 mb)
Winds: from the SE (130 degrees) at 5 MPH (4 knots; 2.1 m/s)
Visibility: 6 or more miles (10+ km)
Ceiling: ceiling and visibility are OK
Clouds: unknown
Weather: no significant weather observed at this time

METAR text: UKKK 191600Z 14002MPS 100V180 CAVOK 27/12 Q1019 R08/70D NOSIG
Conditions at: UKKK (KIEV/ZHYLIANY , UA) observed 1600 UTC 19 August 2019
Temperature: 27.0°C (81°F)
Dewpoint: 12.0°C (54°F) [RH = 39%]
Pressure (altimeter): 30.09 inches Hg (1019.0 mb)
Winds: from the SE (140 degrees) at 5 MPH (4 knots; 2.1 m/s)
Visibility: 6 or more miles (10+ km)
Ceiling: ceiling and visibility are OK
Clouds: unknown
Weather: no significant weather observed at this time

METAR text: UKKK 191530Z 13003MPS CAVOK 27/12 Q1019 R08/70D NOSIG
Conditions at: UKKK (KIEV/ZHYLIANY , UA) observed 1530 UTC 19 August 2019
Temperature: 27.0°C (81°F)
Dewpoint: 12.0°C (54°F) [RH = 39%]
Pressure (altimeter): 30.09 inches Hg (1019.0 mb)
Winds: from the SE (130 degrees) at 7 MPH (6 knots; 3.1 m/s)
Visibility: 6 or more miles (10+ km)
Ceiling: ceiling and visibility are OK
Clouds: unknown
Weather: no significant weather observed at this time

METAR text: UKKK 191500Z 13002MPS 080V180 CAVOK 28/13 Q1019 R08/70D NOSIG
Conditions at: UKKK (KIEV/ZHYLIANY , UA) observed 1500 UTC 19 August 2019
Temperature: 28.0°C (82°F)
Dewpoint: 13.0°C (55°F) [RH = 40%]
Pressure (altimeter): 30.09 inches Hg (1019.0 mb)
Winds: from the SE (130 degrees) at 5 MPH (4 knots; 2.1 m/s)
Visibility: 6 or more miles (10+ km)
Ceiling: ceiling and visibility are OK
Clouds: unknown
Weather: no significant weather observed at this time

METAR text: UKKK 191430Z 13002MPS CAVOK 28/13 Q1019 R26/70D NOSIG
Conditions at: UKKK (KIEV/ZHYLIANY , UA) observed 1430 UTC 19 August 2019
Temperature: 28.0°C (82°F)
Dewpoint: 13.0°C (55°F) [RH = 40%]
Pressure (altimeter): 30.09 inches Hg (1019.0 mb)
Winds: from the SE (130 degrees) at 5 MPH (4 knots; 2.1 m/s)
Visibility: 6 or more miles (10+ km)
Ceiling: ceiling and visibility are OK
Clouds: unknown
Weather: no significant weather observed at this time

METAR text: UKKK 191400Z 15003MPS 080V220 CAVOK 28/13 Q1019 R26/150060 NOSIG
Conditions at: UKKK (KIEV/ZHYLIANY , UA) observed 1400 UTC 19 August 2019
Temperature: 28.0°C (82°F)
Dewpoint: 13.0°C (55°F) [RH = 40%]
Pressure (altimeter): 30.09 inches Hg (1019.0 mb)
Winds: from the SSE (150 degrees) at 7 MPH (6 knots; 3.1 m/s)
Visibility: 6 or more miles (10+ km)
Ceiling: ceiling and visibility are OK
Clouds: unknown
Weather: no significant weather observed at this time

METAR text: UKKK 191330Z VRB01MPS CAVOK 29/12 Q1019 R26/150060 NOSIG
Conditions at: UKKK (KIEV/ZHYLIANY , UA) observed 1330 UTC 19 August 2019
Temperature: 29.0°C (84°F)
Dewpoint: 12.0°C (54°F) [RH = 35%]
Pressure (altimeter): 30.09 inches Hg (1019.0 mb)
Winds: variable direction winds at 2 MPH (2 knots; 1.0 m/s)
Visibility: 6 or more miles (10+ km)
Ceiling: ceiling and visibility are OK
Clouds: unknown
Weather: no significant weather observed at this time

METAR text: UKKK 191300Z 29002MPS CAVOK 28/12 Q1019 R26/150060 NOSIG
Conditions at: UKKK (KIEV/ZHYLIANY , UA) observed 1300 UTC 19 August 2019
Temperature: 28.0°C (82°F)
Dewpoint: 12.0°C (54°F) [RH = 37%]
Pressure (altimeter): 30.09 inches Hg (1019.0 mb)
Winds: from the WNW (290 degrees) at 5 MPH (4 knots; 2.1 m/s)
Visibility: 6 or more miles (10+ km)
Ceiling: ceiling and visibility are OK
Clouds: unknown
Weather: no significant weather observed at this time

METAR text: UKKK 191230Z VRB01MPS CAVOK 28/12 Q1019 R26/150060 NOSIG
Conditions at: UKKK (KIEV/ZHYLIANY , UA) observed 1230 UTC 19 August 2019
Temperature: 28.0°C (82°F)
Dewpoint: 12.0°C (54°F) [RH = 37%]
Pressure (altimeter): 30.09 inches Hg (1019.0 mb)
Winds: variable direction winds at 2 MPH (2 knots; 1.0 m/s)
Visibility: 6 or more miles (10+ km)
Ceiling: ceiling and visibility are OK
Clouds: unknown
Weather: no significant weather observed at this time

METAR text: UKKK 191200Z 02002MPS 270V080 CAVOK 28/12 Q1019 R26/150060 NOSIG
Conditions at: UKKK (KIEV/ZHYLIANY , UA) observed 1200 UTC 19 August 2019
Temperature: 28.0°C (82°F)
Dewpoint: 12.0°C (54°F) [RH = 37%]
Pressure (altimeter): 30.09 inches Hg (1019.0 mb)
Winds: from the NNE (20 degrees) at 5 MPH (4 knots; 2.1 m/s)
Visibility: 6 or more miles (10+ km)
Ceiling: ceiling and visibility are OK
Clouds: unknown
Weather: no significant weather observed at this time

METAR text: UKKK 191130Z 31002MPS CAVOK 28/13 Q1019 R26/150060 NOSIG
Conditions at: UKKK (KIEV/ZHYLIANY , UA) observed 1130 UTC 19 August 2019
Temperature: 28.0°C (82°F)
Dewpoint: 13.0°C (55°F) [RH = 40%]
Pressure (altimeter): 30.09 inches Hg (1019.0 mb)
Winds: from the NW (310 degrees) at 5 MPH (4 knots; 2.1 m/s)
Visibility: 6 or more miles (10+ km)
Ceiling: ceiling and visibility are OK
Clouds: unknown
Weather: no significant weather observed at this time

METAR text: UKKK 191100Z 04002MPS CAVOK 28/12 Q1019 R26/150060 NOSIG
Conditions at: UKKK (KIEV/ZHYLIANY , UA) observed 1100 UTC 19 August 2019
Temperature: 28.0°C (82°F)
Dewpoint: 12.0°C (54°F) [RH = 37%]
Pressure (altimeter): 30.09 inches Hg (1019.0 mb)
Winds: from the NE (40 degrees) at 5 MPH (4 knots; 2.1 m/s)
Visibility: 6 or more miles (10+ km)
Ceiling: ceiling and visibility are OK
Clouds: unknown
Weather: no significant weather observed at this time

METAR text: UKKK 191030Z 26002MPS CAVOK 27/12 Q1019 R26/150060 NOSIG
Conditions at: UKKK (KIEV/ZHYLIANY , UA) observed 1030 UTC 19 August 2019
Temperature: 27.0°C (81°F)
Dewpoint: 12.0°C (54°F) [RH = 39%]
Pressure (altimeter): 30.09 inches Hg (1019.0 mb)
Winds: from the W (260 degrees) at 5 MPH (4 knots; 2.1 m/s)
Visibility: 6 or more miles (10+ km)
Ceiling: ceiling and visibility are OK
Clouds: unknown
Weather: no significant weather observed at this time

METAR text: UKKK 191000Z 17002MPS CAVOK 27/11 Q1019 R26/150060 NOSIG
Conditions at: UKKK (KIEV/ZHYLIANY , UA) observed 1000 UTC 19 August 2019
Temperature: 27.0°C (81°F)
Dewpoint: 11.0°C (52°F) [RH = 37%]
Pressure (altimeter): 30.09 inches Hg (1019.0 mb)
Winds: from the S (170 degrees) at 5 MPH (4 knots; 2.1 m/s)
Visibility: 6 or more miles (10+ km)
Ceiling: ceiling and visibility are OK
Clouds: unknown
Weather: no significant weather observed at this time

METAR text: UKKK 190930Z 20002MPS 090V250 CAVOK 27/12 Q1019 R26/150060 NOSIG
Conditions at: UKKK (KIEV/ZHYLIANY , UA) observed 0930 UTC 19 August 2019
Temperature: 27.0°C (81°F)
Dewpoint: 12.0°C (54°F) [RH = 39%]
Pressure (altimeter): 30.09 inches Hg (1019.0 mb)
Winds: from the SSW (200 degrees) at 5 MPH (4 knots; 2.1 m/s)
Visibility: 6 or more miles (10+ km)
Ceiling: ceiling and visibility are OK
Clouds: unknown
Weather: no significant weather observed at this time

METAR text: UKKK 190900Z VRB01MPS CAVOK 27/13 Q1019 R26/150060 NOSIG
Conditions at: UKKK (KIEV/ZHYLIANY , UA) observed 0900 UTC 19 August 2019
Temperature: 27.0°C (81°F)
Dewpoint: 13.0°C (55°F) [RH = 42%]
Pressure (altimeter): 30.09 inches Hg (1019.0 mb)
Winds: variable direction winds at 2 MPH (2 knots; 1.0 m/s)
Visibility: 6 or more miles (10+ km)
Ceiling: ceiling and visibility are OK
Clouds: unknown
Weather: no significant weather observed at this time

Forecast for: UKKK (KIEV/ZHYLIANY , UA)
Text: TAF UKKK 201701Z 2018/2118 13003MPS 9999 SCT040 TX30/2112Z TN15/2103Z
Forecast period: 1800 UTC 20 August 2019 to 0500 UTC 21 August 2019
Forecast type: FROM: standard forecast or significant change
Winds: from the SE (130 degrees) at 7 MPH (6 knots; 3.1 m/s)
Visibility: 6 or more miles 10+ km)
Ceiling: at least 12,000 feet AGL
Clouds: scattered clouds at 4000 feet AGL
Weather: no significant weather forecast for this period
Text: TEMPO 2020/2105 VRB01MPS 2000 BR SCT007
Forecast period: 2000 UTC 20 August 2019 to 0500 UTC 21 August 2019
Forecast type: TEMPORARY: The following changes expected for less than half the time period
Winds: variable direction winds at 2 MPH (2 knots; 1.0 m/s)
Visibility: 1.24 miles (2.00 km)
Ceiling: at least 12,000 feet AGL
Clouds: scattered clouds at 700 feet AGL
Weather: BR  (mist)
Text: BECMG 2105/2107 10003G08MPS
Forecast period: 0500 to 1800 UTC 21 August 2019
Forecast type: BECOMING: Conditions expected to become as follows by 0700 UTC 21 August 2019
Winds: from the E (100 degrees) at 7 MPH (6 knots; 3.1 m/s)
gusting to 18 MPH (16 knots; 8.2 m/s)
Visibility: 6 or more miles 10+ km)
Ceiling: at least 12,000 feet AGL
Clouds: scattered clouds at 4000 feet AGL
Weather: no significant weather forecast for this period